sensor_id;sensor_type;location;lat;lon;timestamp;P1;durP1;ratioP1;P2;durP2;ratioP2
7316;SDS011;3699;51.462;6.696;2023-11-21T00:02:06;26.93;;;15.27;;
7316;SDS011;3699;51.462;6.696;2023-11-21T00:04:33;28.00;;;17.27;;
7316;SDS011;3699;51.462;6.696;2023-11-21T00:07:01;23.90;;;15.80;;
7316;SDS011;3699;51.462;6.696;2023-11-21T00:09:28;29.20;;;16.97;;
7316;SDS011;3699;51.462;6.696;2023-11-21T00:11:55;27.63;;;16.90;;
7316;SDS011;3699;51.462;6.696;2023-11-21T00:14:21;33.03;;;16.47;;
7316;SDS011;3699;51.462;6.696;2023-11-21T00:16:48;25.47;;;16.20;;
7316;SDS011;3699;51.462;6.696;2023-11-21T00:19:15;24.43;;;15.23;;
7316;SDS011;3699;51.462;6.696;2023-11-21T00:21:42;31.60;;;16.37;;
7316;SDS011;3699;51.462;6.696;2023-11-21T00:24:11;27.33;;;15.67;;
7316;SDS011;3699;51.462;6.696;2023-11-21T00:26:39;26.80;;;15.73;;
7316;SDS011;3699;51.462;6.696;2023-11-21T00:29:06;27.47;;;16.23;;
7316;SDS011;3699;51.462;6.696;2023-11-21T00:31:33;22.53;;;14.60;;
7316;SDS011;3699;51.462;6.696;2023-11-21T00:34:01;25.17;;;14.73;;
7316;SDS011;3699;51.462;6.696;2023-11-21T00:36:28;26.80;;;15.13;;
7316;SDS011;3699;51.462;6.696;2023-11-21T00:38:55;24.43;;;14.17;;
7316;SDS011;3699;51.462;6.696;2023-11-21T00:41:23;23.37;;;14.67;;
7316;SDS011;3699;51.462;6.696;2023-11-21T00:43:52;24.93;;;14.17;;
7316;SDS011;3699;51.462;6.696;2023-11-21T00:46:19;31.57;;;14.67;;
7316;SDS011;3699;51.462;6.696;2023-11-21T00:48:46;27.20;;;13.70;;
7316;SDS011;3699;51.462;6.696;2023-11-21T00:51:13;24.30;;;13.57;;
7316;SDS011;3699;51.462;6.696;2023-11-21T00:53:39;24.77;;;14.20;;
7316;SDS011;3699;51.462;6.696;2023-11-21T00:56:06;27.07;;;13.77;;
7316;SDS011;3699;51.462;6.696;2023-11-21T00:58:34;27.10;;;14.63;;
7316;SDS011;3699;51.462;6.696;2023-11-21T01:01:01;31.40;;;14.97;;
7316;SDS011;3699;51.462;6.696;2023-11-21T01:03:28;27.03;;;14.40;;
7316;SDS011;3699;51.462;6.696;2023-11-21T01:05:55;23.70;;;15.20;;
7316;SDS011;3699;51.462;6.696;2023-11-21T01:08:22;23.93;;;14.47;;
7316;SDS011;3699;51.462;6.696;2023-11-21T01:10:49;23.67;;;14.40;;
7316;SDS011;3699;51.462;6.696;2023-11-21T01:13:16;21.30;;;14.30;;
7316;SDS011;3699;51.462;6.696;2023-11-21T01:15:44;29.27;;;15.57;;
7316;SDS011;3699;51.462;6.696;2023-11-21T01:18:11;30.30;;;14.37;;
7316;SDS011;3699;51.462;6.696;2023-11-21T01:20:38;31.70;;;15.70;;
7316;SDS011;3699;51.462;6.696;2023-11-21T01:23:05;29.87;;;14.97;;
7316;SDS011;3699;51.462;6.696;2023-11-21T01:25:31;25.07;;;14.37;;
7316;SDS011;3699;51.462;6.696;2023-11-21T01:27:58;27.13;;;15.00;;
7316;SDS011;3699;51.462;6.696;2023-11-21T01:30:25;27.87;;;14.23;;
7316;SDS011;3699;51.462;6.696;2023-11-21T01:32:53;26.23;;;14.20;;
7316;SDS011;3699;51.462;6.696;2023-11-21T01:35:20;23.80;;;13.30;;
7316;SDS011;3699;51.462;6.696;2023-11-21T01:37:46;25.20;;;14.40;;
7316;SDS011;3699;51.462;6.696;2023-11-21T01:40:14;26.07;;;13.93;;
7316;SDS011;3699;51.462;6.696;2023-11-21T01:42:41;23.17;;;14.30;;
7316;SDS011;3699;51.462;6.696;2023-11-21T01:45:09;24.67;;;13.90;;
7316;SDS011;3699;51.462;6.696;2023-11-21T01:47:37;19.57;;;12.73;;
7316;SDS011;3699;51.462;6.696;2023-11-21T01:50:07;23.03;;;14.83;;
7316;SDS011;3699;51.462;6.696;2023-11-21T01:52:37;28.87;;;15.80;;
7316;SDS011;3699;51.462;6.696;2023-11-21T01:55:06;25.07;;;14.73;;
7316;SDS011;3699;51.462;6.696;2023-11-21T01:57:34;24.10;;;14.37;;
7316;SDS011;3699;51.462;6.696;2023-11-21T02:00:03;30.40;;;15.40;;
7316;SDS011;3699;51.462;6.696;2023-11-21T02:02:40;27.90;;;14.50;;
7316;SDS011;3699;51.462;6.696;2023-11-21T02:05:09;28.70;;;14.93;;
7316;SDS011;3699;51.462;6.696;2023-11-21T02:07:37;27.87;;;14.83;;
7316;SDS011;3699;51.462;6.696;2023-11-21T02:10:05;28.07;;;15.97;;
7316;SDS011;3699;51.462;6.696;2023-11-21T02:12:32;24.30;;;15.03;;
7316;SDS011;3699;51.462;6.696;2023-11-21T02:15:00;21.83;;;14.00;;
7316;SDS011;3699;51.462;6.696;2023-11-21T02:17:27;27.70;;;15.70;;
7316;SDS011;3699;51.462;6.696;2023-11-21T02:19:54;31.37;;;16.63;;
7316;SDS011;3699;51.462;6.696;2023-11-21T02:22:22;25.20;;;14.47;;
7316;SDS011;3699;51.462;6.696;2023-11-21T02:24:52;26.57;;;14.80;;
7316;SDS011;3699;51.462;6.696;2023-11-21T02:27:19;28.07;;;13.70;;
7316;SDS011;3699;51.462;6.696;2023-11-21T02:29:48;26.47;;;14.10;;
7316;SDS011;3699;51.462;6.696;2023-11-21T02:32:14;23.57;;;14.87;;
7316;SDS011;3699;51.462;6.696;2023-11-21T02:34:44;23.03;;;15.23;;
7316;SDS011;3699;51.462;6.696;2023-11-21T02:37:10;27.30;;;14.83;;
7316;SDS011;3699;51.462;6.696;2023-11-21T02:39:37;27.20;;;16.87;;
7316;SDS011;3699;51.462;6.696;2023-11-21T02:42:05;29.20;;;16.03;;
7316;SDS011;3699;51.462;6.696;2023-11-21T02:44:32;35.27;;;17.93;;
7316;SDS011;3699;51.462;6.696;2023-11-21T02:46:59;32.10;;;16.90;;
7316;SDS011;3699;51.462;6.696;2023-11-21T02:49:26;30.63;;;16.97;;
7316;SDS011;3699;51.462;6.696;2023-11-21T02:51:53;34.97;;;16.77;;
7316;SDS011;3699;51.462;6.696;2023-11-21T02:54:20;30.70;;;16.40;;
7316;SDS011;3699;51.462;6.696;2023-11-21T02:56:48;32.27;;;17.77;;
7316;SDS011;3699;51.462;6.696;2023-11-21T02:59:16;33.57;;;18.03;;
7316;SDS011;3699;51.462;6.696;2023-11-21T03:01:44;31.33;;;17.00;;
7316;SDS011;3699;51.462;6.696;2023-11-21T03:04:11;33.80;;;18.87;;
7316;SDS011;3699;51.462;6.696;2023-11-21T03:06:43;37.67;;;18.97;;
7316;SDS011;3699;51.462;6.696;2023-11-21T03:09:10;30.23;;;18.70;;
7316;SDS011;3699;51.462;6.696;2023-11-21T03:11:38;32.87;;;19.33;;
7316;SDS011;3699;51.462;6.696;2023-11-21T03:14:04;40.93;;;19.37;;
7316;SDS011;3699;51.462;6.696;2023-11-21T03:16:33;35.23;;;18.90;;
7316;SDS011;3699;51.462;6.696;2023-11-21T03:19:00;37.03;;;21.57;;
7316;SDS011;3699;51.462;6.696;2023-11-21T03:21:26;35.27;;;19.97;;
7316;SDS011;3699;51.462;6.696;2023-11-21T03:23:54;33.37;;;20.07;;
7316;SDS011;3699;51.462;6.696;2023-11-21T03:26:21;35.27;;;18.50;;
7316;SDS011;3699;51.462;6.696;2023-11-21T03:28:47;33.77;;;18.60;;
7316;SDS011;3699;51.462;6.696;2023-11-21T03:31:15;41.50;;;20.43;;
7316;SDS011;3699;51.462;6.696;2023-11-21T03:33:45;32.53;;;20.20;;
7316;SDS011;3699;51.462;6.696;2023-11-21T03:36:12;34.27;;;18.80;;
7316;SDS011;3699;51.462;6.696;2023-11-21T03:38:39;35.20;;;18.40;;
7316;SDS011;3699;51.462;6.696;2023-11-21T03:41:06;33.33;;;19.47;;
7316;SDS011;3699;51.462;6.696;2023-11-21T03:43:35;38.43;;;19.17;;
7316;SDS011;3699;51.462;6.696;2023-11-21T03:46:01;32.90;;;18.53;;
7316;SDS011;3699;51.462;6.696;2023-11-21T03:48:28;37.10;;;19.00;;
7316;SDS011;3699;51.462;6.696;2023-11-21T03:50:56;38.13;;;19.50;;
7316;SDS011;3699;51.462;6.696;2023-11-21T03:53:23;35.00;;;18.00;;
7316;SDS011;3699;51.462;6.696;2023-11-21T03:55:50;38.93;;;19.60;;
7316;SDS011;3699;51.462;6.696;2023-11-21T03:58:17;33.33;;;18.07;;
7316;SDS011;3699;51.462;6.696;2023-11-21T04:00:43;28.47;;;16.63;;
7316;SDS011;3699;51.462;6.696;2023-11-21T04:03:10;32.83;;;17.40;;
7316;SDS011;3699;51.462;6.696;2023-11-21T04:05:38;33.03;;;17.43;;
7316;SDS011;3699;51.462;6.696;2023-11-21T04:08:06;43.00;;;18.67;;
7316;SDS011;3699;51.462;6.696;2023-11-21T04:10:33;36.33;;;17.83;;
7316;SDS011;3699;51.462;6.696;2023-11-21T04:13:00;32.57;;;17.30;;
7316;SDS011;3699;51.462;6.696;2023-11-21T04:15:27;28.57;;;16.53;;
7316;SDS011;3699;51.462;6.696;2023-11-21T04:17:53;31.27;;;15.80;;
7316;SDS011;3699;51.462;6.696;2023-11-21T04:20:21;29.50;;;17.77;;
7316;SDS011;3699;51.462;6.696;2023-11-21T04:22:48;31.30;;;16.77;;
7316;SDS011;3699;51.462;6.696;2023-11-21T04:25:16;36.03;;;17.37;;
7316;SDS011;3699;51.462;6.696;2023-11-21T04:27:44;33.83;;;17.57;;
7316;SDS011;3699;51.462;6.696;2023-11-21T04:30:12;34.43;;;18.70;;
7316;SDS011;3699;51.462;6.696;2023-11-21T04:32:39;35.70;;;17.83;;
7316;SDS011;3699;51.462;6.696;2023-11-21T04:35:07;34.10;;;17.67;;
7316;SDS011;3699;51.462;6.696;2023-11-21T04:37:34;36.87;;;18.00;;
7316;SDS011;3699;51.462;6.696;2023-11-21T04:40:01;30.83;;;17.27;;
7316;SDS011;3699;51.462;6.696;2023-11-21T04:42:32;34.37;;;15.97;;
7316;SDS011;3699;51.462;6.696;2023-11-21T04:45:00;28.00;;;16.90;;
7316;SDS011;3699;51.462;6.696;2023-11-21T04:47:30;37.37;;;17.07;;
7316;SDS011;3699;51.462;6.696;2023-11-21T04:49:56;31.13;;;17.37;;
7316;SDS011;3699;51.462;6.696;2023-11-21T04:52:23;34.73;;;18.07;;
7316;SDS011;3699;51.462;6.696;2023-11-21T04:54:50;33.80;;;18.17;;
7316;SDS011;3699;51.462;6.696;2023-11-21T04:57:19;33.67;;;17.90;;
7316;SDS011;3699;51.462;6.696;2023-11-21T04:59:49;32.17;;;17.77;;
7316;SDS011;3699;51.462;6.696;2023-11-21T05:02:16;33.40;;;18.13;;
7316;SDS011;3699;51.462;6.696;2023-11-21T05:04:44;29.90;;;16.20;;
7316;SDS011;3699;51.462;6.696;2023-11-21T05:07:11;32.17;;;16.80;;
7316;SDS011;3699;51.462;6.696;2023-11-21T05:09:40;28.70;;;17.53;;
7316;SDS011;3699;51.462;6.696;2023-11-21T05:12:08;33.10;;;17.60;;
7316;SDS011;3699;51.462;6.696;2023-11-21T05:14:35;36.57;;;17.67;;
7316;SDS011;3699;51.462;6.696;2023-11-21T05:17:04;34.13;;;17.40;;
7316;SDS011;3699;51.462;6.696;2023-11-21T05:19:30;36.57;;;17.07;;
7316;SDS011;3699;51.462;6.696;2023-11-21T05:21:57;32.53;;;16.70;;
7316;SDS011;3699;51.462;6.696;2023-11-21T05:24:25;31.67;;;16.97;;
7316;SDS011;3699;51.462;6.696;2023-11-21T05:26:53;42.47;;;19.00;;
7316;SDS011;3699;51.462;6.696;2023-11-21T05:29:21;41.37;;;20.03;;
7316;SDS011;3699;51.462;6.696;2023-11-21T05:31:47;38.30;;;19.03;;
7316;SDS011;3699;51.462;6.696;2023-11-21T05:34:15;40.07;;;21.03;;
7316;SDS011;3699;51.462;6.696;2023-11-21T05:36:43;42.37;;;20.53;;
7316;SDS011;3699;51.462;6.696;2023-11-21T05:39:10;47.10;;;21.03;;
7316;SDS011;3699;51.462;6.696;2023-11-21T05:41:37;47.00;;;21.03;;
7316;SDS011;3699;51.462;6.696;2023-11-21T05:44:04;53.23;;;24.03;;
7316;SDS011;3699;51.462;6.696;2023-11-21T05:46:31;59.47;;;23.60;;
7316;SDS011;3699;51.462;6.696;2023-11-21T05:48:58;53.90;;;22.60;;
7316;SDS011;3699;51.462;6.696;2023-11-21T05:51:26;57.80;;;24.00;;
7316;SDS011;3699;51.462;6.696;2023-11-21T05:53:53;42.13;;;22.07;;
7316;SDS011;3699;51.462;6.696;2023-11-21T05:56:19;51.40;;;24.43;;
7316;SDS011;3699;51.462;6.696;2023-11-21T05:58:46;47.37;;;24.07;;
7316;SDS011;3699;51.462;6.696;2023-11-21T06:01:13;57.90;;;26.13;;
7316;SDS011;3699;51.462;6.696;2023-11-21T06:03:40;64.37;;;27.53;;
7316;SDS011;3699;51.462;6.696;2023-11-21T06:06:08;57.33;;;27.33;;
7316;SDS011;3699;51.462;6.696;2023-11-21T06:08:36;65.17;;;26.07;;
7316;SDS011;3699;51.462;6.696;2023-11-21T06:11:03;63.20;;;26.53;;
7316;SDS011;3699;51.462;6.696;2023-11-21T06:13:30;62.63;;;24.73;;
7316;SDS011;3699;51.462;6.696;2023-11-21T06:15:56;56.93;;;25.37;;
7316;SDS011;3699;51.462;6.696;2023-11-21T06:18:23;54.47;;;25.07;;
7316;SDS011;3699;51.462;6.696;2023-11-21T06:20:50;60.30;;;24.40;;
7316;SDS011;3699;51.462;6.696;2023-11-21T06:23:18;63.50;;;25.83;;
7316;SDS011;3699;51.462;6.696;2023-11-21T06:25:46;61.43;;;26.40;;
7316;SDS011;3699;51.462;6.696;2023-11-21T06:28:13;61.17;;;25.33;;
7316;SDS011;3699;51.462;6.696;2023-11-21T06:30:42;51.17;;;22.83;;
7316;SDS011;3699;51.462;6.696;2023-11-21T06:33:10;51.60;;;23.83;;
7316;SDS011;3699;51.462;6.696;2023-11-21T06:35:37;54.20;;;23.33;;
7316;SDS011;3699;51.462;6.696;2023-11-21T06:38:05;59.97;;;25.07;;
7316;SDS011;3699;51.462;6.696;2023-11-21T06:40:31;63.23;;;24.57;;
7316;SDS011;3699;51.462;6.696;2023-11-21T06:43:00;55.80;;;25.30;;
7316;SDS011;3699;51.462;6.696;2023-11-21T06:45:27;67.40;;;27.27;;
7316;SDS011;3699;51.462;6.696;2023-11-21T06:47:54;66.20;;;25.20;;
7316;SDS011;3699;51.462;6.696;2023-11-21T06:50:21;59.63;;;26.13;;
7316;SDS011;3699;51.462;6.696;2023-11-21T06:52:48;48.70;;;23.77;;
7316;SDS011;3699;51.462;6.696;2023-11-21T06:55:14;57.73;;;24.70;;
7316;SDS011;3699;51.462;6.696;2023-11-21T06:57:42;55.20;;;24.47;;
7316;SDS011;3699;51.462;6.696;2023-11-21T07:00:11;63.70;;;24.63;;
7316;SDS011;3699;51.462;6.696;2023-11-21T07:02:39;50.33;;;22.60;;
7316;SDS011;3699;51.462;6.696;2023-11-21T07:05:06;57.90;;;25.83;;
7316;SDS011;3699;51.462;6.696;2023-11-21T07:07:33;56.57;;;25.70;;
7316;SDS011;3699;51.462;6.696;2023-11-21T07:10:00;55.67;;;23.73;;
7316;SDS011;3699;51.462;6.696;2023-11-21T07:12:28;55.17;;;24.67;;
7316;SDS011;3699;51.462;6.696;2023-11-21T07:14:55;52.10;;;24.77;;
7316;SDS011;3699;51.462;6.696;2023-11-21T07:17:23;52.43;;;23.80;;
7316;SDS011;3699;51.462;6.696;2023-11-21T07:19:50;56.03;;;25.43;;
7316;SDS011;3699;51.462;6.696;2023-11-21T07:22:16;54.33;;;23.40;;
7316;SDS011;3699;51.462;6.696;2023-11-21T07:24:47;56.70;;;24.27;;
7316;SDS011;3699;51.462;6.696;2023-11-21T07:27:14;51.10;;;23.97;;
7316;SDS011;3699;51.462;6.696;2023-11-21T07:29:42;54.30;;;24.70;;
7316;SDS011;3699;51.462;6.696;2023-11-21T07:32:08;47.60;;;22.17;;
7316;SDS011;3699;51.462;6.696;2023-11-21T07:34:36;49.83;;;23.67;;
7316;SDS011;3699;51.462;6.696;2023-11-21T07:37:03;51.80;;;23.27;;
7316;SDS011;3699;51.462;6.696;2023-11-21T07:39:30;51.97;;;23.57;;
7316;SDS011;3699;51.462;6.696;2023-11-21T07:41:57;42.87;;;21.57;;
7316;SDS011;3699;51.462;6.696;2023-11-21T07:44:24;52.30;;;23.70;;
7316;SDS011;3699;51.462;6.696;2023-11-21T07:46:51;42.93;;;20.97;;
7316;SDS011;3699;51.462;6.696;2023-11-21T07:49:22;39.83;;;21.07;;
7316;SDS011;3699;51.462;6.696;2023-11-21T07:51:50;43.33;;;20.30;;
7316;SDS011;3699;51.462;6.696;2023-11-21T07:54:17;44.87;;;21.00;;
7316;SDS011;3699;51.462;6.696;2023-11-21T07:56:43;53.97;;;22.37;;
7316;SDS011;3699;51.462;6.696;2023-11-21T07:59:11;48.13;;;22.00;;
7316;SDS011;3699;51.462;6.696;2023-11-21T08:01:39;54.57;;;22.67;;
7316;SDS011;3699;51.462;6.696;2023-11-21T08:04:08;65.40;;;25.90;;
7316;SDS011;3699;51.462;6.696;2023-11-21T08:06:35;57.50;;;24.03;;
7316;SDS011;3699;51.462;6.696;2023-11-21T08:09:03;57.27;;;25.43;;
7316;SDS011;3699;51.462;6.696;2023-11-21T08:11:29;54.57;;;23.90;;
7316;SDS011;3699;51.462;6.696;2023-11-21T08:13:58;53.77;;;22.87;;
7316;SDS011;3699;51.462;6.696;2023-11-21T08:16:25;46.57;;;22.70;;
7316;SDS011;3699;51.462;6.696;2023-11-21T08:18:52;49.27;;;22.97;;
7316;SDS011;3699;51.462;6.696;2023-11-21T08:21:19;44.80;;;21.13;;
7316;SDS011;3699;51.462;6.696;2023-11-21T08:23:46;46.73;;;22.27;;
7316;SDS011;3699;51.462;6.696;2023-11-21T08:26:20;43.13;;;20.83;;
7316;SDS011;3699;51.462;6.696;2023-11-21T08:28:46;46.07;;;22.03;;
7316;SDS011;3699;51.462;6.696;2023-11-21T08:31:13;51.93;;;23.63;;
7316;SDS011;3699;51.462;6.696;2023-11-21T08:33:40;41.63;;;20.00;;
7316;SDS011;3699;51.462;6.696;2023-11-21T08:36:08;41.93;;;20.20;;
7316;SDS011;3699;51.462;6.696;2023-11-21T08:38:36;44.70;;;20.43;;
7316;SDS011;3699;51.462;6.696;2023-11-21T08:41:03;40.33;;;19.63;;
7316;SDS011;3699;51.462;6.696;2023-11-21T08:43:33;40.40;;;18.83;;
7316;SDS011;3699;51.462;6.696;2023-11-21T08:46:00;41.43;;;19.90;;
7316;SDS011;3699;51.462;6.696;2023-11-21T08:48:28;38.10;;;18.00;;
7316;SDS011;3699;51.462;6.696;2023-11-21T08:50:55;39.27;;;18.90;;
7316;SDS011;3699;51.462;6.696;2023-11-21T08:53:22;40.73;;;19.80;;
7316;SDS011;3699;51.462;6.696;2023-11-21T08:55:51;44.03;;;21.23;;
7316;SDS011;3699;51.462;6.696;2023-11-21T08:58:18;49.07;;;22.93;;
7316;SDS011;3699;51.462;6.696;2023-11-21T09:00:47;47.80;;;21.93;;
7316;SDS011;3699;51.462;6.696;2023-11-21T09:03:13;53.43;;;22.70;;
7316;SDS011;3699;51.462;6.696;2023-11-21T09:05:40;47.40;;;22.93;;
7316;SDS011;3699;51.462;6.696;2023-11-21T09:08:07;45.57;;;21.90;;
7316;SDS011;3699;51.462;6.696;2023-11-21T09:10:34;54.80;;;23.33;;
7316;SDS011;3699;51.462;6.696;2023-11-21T09:13:02;47.53;;;22.53;;
7316;SDS011;3699;51.462;6.696;2023-11-21T09:15:28;46.07;;;20.50;;
7316;SDS011;3699;51.462;6.696;2023-11-21T09:17:56;48.50;;;20.77;;
7316;SDS011;3699;51.462;6.696;2023-11-21T09:20:23;43.07;;;19.57;;
7316;SDS011;3699;51.462;6.696;2023-11-21T09:22:50;38.33;;;18.90;;
7316;SDS011;3699;51.462;6.696;2023-11-21T09:25:16;43.93;;;19.90;;
7316;SDS011;3699;51.462;6.696;2023-11-21T09:27:44;40.87;;;19.70;;
7316;SDS011;3699;51.462;6.696;2023-11-21T09:30:11;43.93;;;19.50;;
7316;SDS011;3699;51.462;6.696;2023-11-21T09:32:39;38.60;;;20.07;;
7316;SDS011;3699;51.462;6.696;2023-11-21T09:35:11;45.07;;;20.47;;
7316;SDS011;3699;51.462;6.696;2023-11-21T09:37:39;47.60;;;19.80;;
7316;SDS011;3699;51.462;6.696;2023-11-21T09:40:06;37.43;;;18.83;;
7316;SDS011;3699;51.462;6.696;2023-11-21T09:42:38;35.03;;;19.13;;
7316;SDS011;3699;51.462;6.696;2023-11-21T09:45:12;41.33;;;19.90;;
7316;SDS011;3699;51.462;6.696;2023-11-21T09:47:43;35.63;;;18.37;;
7316;SDS011;3699;51.462;6.696;2023-11-21T09:50:11;35.23;;;17.73;;
7316;SDS011;3699;51.462;6.696;2023-11-21T09:52:44;39.43;;;17.00;;
7316;SDS011;3699;51.462;6.696;2023-11-21T09:55:18;36.47;;;18.37;;
7316;SDS011;3699;51.462;6.696;2023-11-21T09:57:48;34.13;;;18.53;;
7316;SDS011;3699;51.462;6.696;2023-11-21T10:00:15;35.23;;;18.20;;
7316;SDS011;3699;51.462;6.696;2023-11-21T10:02:45;31.47;;;17.13;;
7316;SDS011;3699;51.462;6.696;2023-11-21T10:05:15;40.70;;;20.27;;
7316;SDS011;3699;51.462;6.696;2023-11-21T10:07:43;37.57;;;17.93;;
7316;SDS011;3699;51.462;6.696;2023-11-21T10:10:11;36.13;;;17.97;;
7316;SDS011;3699;51.462;6.696;2023-11-21T10:12:41;38.87;;;20.17;;
7316;SDS011;3699;51.462;6.696;2023-11-21T10:15:09;50.07;;;21.50;;
7316;SDS011;3699;51.462;6.696;2023-11-21T10:17:41;46.43;;;21.80;;
7316;SDS011;3699;51.462;6.696;2023-11-21T10:20:10;43.80;;;21.60;;
7316;SDS011;3699;51.462;6.696;2023-11-21T10:22:40;49.10;;;22.23;;
7316;SDS011;3699;51.462;6.696;2023-11-21T10:25:07;51.23;;;22.97;;
7316;SDS011;3699;51.462;6.696;2023-11-21T10:27:34;48.57;;;21.90;;
7316;SDS011;3699;51.462;6.696;2023-11-21T10:30:01;51.97;;;23.73;;
7316;SDS011;3699;51.462;6.696;2023-11-21T10:32:29;48.77;;;24.30;;
7316;SDS011;3699;51.462;6.696;2023-11-21T10:34:57;50.07;;;23.77;;
7316;SDS011;3699;51.462;6.696;2023-11-21T10:37:27;43.43;;;22.90;;
7316;SDS011;3699;51.462;6.696;2023-11-21T10:39:58;50.00;;;23.17;;
7316;SDS011;3699;51.462;6.696;2023-11-21T10:42:25;47.77;;;23.20;;
7316;SDS011;3699;51.462;6.696;2023-11-21T10:44:52;54.57;;;25.50;;
7316;SDS011;3699;51.462;6.696;2023-11-21T10:47:19;52.20;;;25.23;;
7316;SDS011;3699;51.462;6.696;2023-11-21T10:49:47;53.50;;;26.20;;
7316;SDS011;3699;51.462;6.696;2023-11-21T10:52:14;55.03;;;27.10;;
7316;SDS011;3699;51.462;6.696;2023-11-21T10:54:42;50.53;;;24.53;;
7316;SDS011;3699;51.462;6.696;2023-11-21T10:57:10;50.13;;;25.37;;
7316;SDS011;3699;51.462;6.696;2023-11-21T10:59:42;55.50;;;25.90;;
7316;SDS011;3699;51.462;6.696;2023-11-21T11:02:18;46.90;;;25.57;;
7316;SDS011;3699;51.462;6.696;2023-11-21T11:04:50;44.30;;;24.37;;
7316;SDS011;3699;51.462;6.696;2023-11-21T11:07:20;43.47;;;23.13;;
7316;SDS011;3699;51.462;6.696;2023-11-21T11:09:52;41.70;;;21.80;;
7316;SDS011;3699;51.462;6.696;2023-11-21T11:12:20;40.27;;;20.83;;
7316;SDS011;3699;51.462;6.696;2023-11-21T11:14:47;39.23;;;20.53;;
7316;SDS011;3699;51.462;6.696;2023-11-21T11:17:14;42.83;;;21.30;;
7316;SDS011;3699;51.462;6.696;2023-11-21T11:19:44;39.10;;;21.33;;
7316;SDS011;3699;51.462;6.696;2023-11-21T11:22:14;41.53;;;22.13;;
7316;SDS011;3699;51.462;6.696;2023-11-21T11:24:57;42.90;;;21.10;;
7316;SDS011;3699;51.462;6.696;2023-11-21T11:27:44;43.57;;;22.73;;
7316;SDS011;3699;51.462;6.696;2023-11-21T11:30:21;43.57;;;21.77;;
7316;SDS011;3699;51.462;6.696;2023-11-21T11:33:04;48.63;;;25.20;;
7316;SDS011;3699;51.462;6.696;2023-11-21T11:35:38;60.47;;;26.00;;
7316;SDS011;3699;51.462;6.696;2023-11-21T11:38:12;42.70;;;22.47;;
7316;SDS011;3699;51.462;6.696;2023-11-21T11:40:40;50.63;;;24.10;;
7316;SDS011;3699;51.462;6.696;2023-11-21T11:43:08;43.77;;;23.63;;
7316;SDS011;3699;51.462;6.696;2023-11-21T11:45:35;49.13;;;22.50;;
7316;SDS011;3699;51.462;6.696;2023-11-21T11:48:06;53.03;;;24.67;;
7316;SDS011;3699;51.462;6.696;2023-11-21T11:50:33;50.03;;;23.90;;
7316;SDS011;3699;51.462;6.696;2023-11-21T11:53:11;50.57;;;23.90;;
7316;SDS011;3699;51.462;6.696;2023-11-21T11:55:39;51.00;;;25.07;;
7316;SDS011;3699;51.462;6.696;2023-11-21T11:58:06;45.07;;;21.10;;
7316;SDS011;3699;51.462;6.696;2023-11-21T12:00:35;47.80;;;22.03;;
7316;SDS011;3699;51.462;6.696;2023-11-21T12:03:05;49.90;;;23.00;;
7316;SDS011;3699;51.462;6.696;2023-11-21T12:05:33;47.07;;;21.80;;
7316;SDS011;3699;51.462;6.696;2023-11-21T12:08:04;42.63;;;20.77;;
7316;SDS011;3699;51.462;6.696;2023-11-21T12:10:32;41.37;;;20.13;;
7316;SDS011;3699;51.462;6.696;2023-11-21T12:13:01;42.17;;;20.53;;
7316;SDS011;3699;51.462;6.696;2023-11-21T12:15:32;39.50;;;20.80;;
7316;SDS011;3699;51.462;6.696;2023-11-21T12:18:00;45.20;;;20.77;;
7316;SDS011;3699;51.462;6.696;2023-11-21T12:20:27;41.07;;;21.80;;
7316;SDS011;3699;51.462;6.696;2023-11-21T12:22:56;40.50;;;20.20;;
7316;SDS011;3699;51.462;6.696;2023-11-21T12:25:24;41.10;;;20.93;;
7316;SDS011;3699;51.462;6.696;2023-11-21T12:27:54;37.27;;;19.13;;
7316;SDS011;3699;51.462;6.696;2023-11-21T12:30:22;39.10;;;20.17;;
7316;SDS011;3699;51.462;6.696;2023-11-21T12:32:54;39.20;;;19.10;;
7316;SDS011;3699;51.462;6.696;2023-11-21T12:35:22;35.13;;;18.50;;
7316;SDS011;3699;51.462;6.696;2023-11-21T12:37:51;39.30;;;20.23;;
7316;SDS011;3699;51.462;6.696;2023-11-21T12:40:19;37.03;;;18.53;;
7316;SDS011;3699;51.462;6.696;2023-11-21T12:42:48;42.87;;;18.73;;
7316;SDS011;3699;51.462;6.696;2023-11-21T12:45:19;34.87;;;17.30;;
7316;SDS011;3699;51.462;6.696;2023-11-21T12:47:48;37.77;;;18.50;;
7316;SDS011;3699;51.462;6.696;2023-11-21T12:50:19;41.23;;;18.27;;
7316;SDS011;3699;51.462;6.696;2023-11-21T12:52:48;37.37;;;18.50;;
7316;SDS011;3699;51.462;6.696;2023-11-21T12:55:16;41.70;;;17.50;;
7316;SDS011;3699;51.462;6.696;2023-11-21T12:57:47;34.53;;;16.60;;
7316;SDS011;3699;51.462;6.696;2023-11-21T13:00:16;32.80;;;14.90;;
7316;SDS011;3699;51.462;6.696;2023-11-21T13:02:53;33.00;;;16.33;;
7316;SDS011;3699;51.462;6.696;2023-11-21T13:05:30;35.37;;;17.00;;
7316;SDS011;3699;51.462;6.696;2023-11-21T13:07:59;31.70;;;15.77;;
7316;SDS011;3699;51.462;6.696;2023-11-21T13:10:28;25.80;;;13.77;;
7316;SDS011;3699;51.462;6.696;2023-11-21T13:12:56;32.73;;;16.10;;
7316;SDS011;3699;51.462;6.696;2023-11-21T13:15:25;30.33;;;14.23;;
7316;SDS011;3699;51.462;6.696;2023-11-21T13:17:53;30.07;;;14.67;;
7316;SDS011;3699;51.462;6.696;2023-11-21T13:20:21;24.13;;;12.23;;
7316;SDS011;3699;51.462;6.696;2023-11-21T13:22:51;23.50;;;12.70;;
7316;SDS011;3699;51.462;6.696;2023-11-21T13:25:22;19.33;;;10.83;;
7316;SDS011;3699;51.462;6.696;2023-11-21T13:27:49;18.93;;;10.20;;
7316;SDS011;3699;51.462;6.696;2023-11-21T13:30:16;26.87;;;11.37;;
7316;SDS011;3699;51.462;6.696;2023-11-21T13:32:48;18.27;;;10.50;;
7316;SDS011;3699;51.462;6.696;2023-11-21T13:35:16;21.93;;;10.97;;
7316;SDS011;3699;51.462;6.696;2023-11-21T13:37:47;18.80;;;10.90;;
7316;SDS011;3699;51.462;6.696;2023-11-21T13:40:19;20.57;;;11.00;;
7316;SDS011;3699;51.462;6.696;2023-11-21T13:42:48;22.33;;;11.87;;
7316;SDS011;3699;51.462;6.696;2023-11-21T13:45:18;20.23;;;11.17;;
7316;SDS011;3699;51.462;6.696;2023-11-21T13:47:47;20.70;;;11.77;;
7316;SDS011;3699;51.462;6.696;2023-11-21T13:50:16;23.00;;;12.87;;
7316;SDS011;3699;51.462;6.696;2023-11-21T13:52:47;20.93;;;12.07;;
7316;SDS011;3699;51.462;6.696;2023-11-21T13:55:16;24.20;;;12.40;;
7316;SDS011;3699;51.462;6.696;2023-11-21T13:57:44;23.40;;;12.10;;
7316;SDS011;3699;51.462;6.696;2023-11-21T14:00:14;23.27;;;12.33;;
7316;SDS011;3699;51.462;6.696;2023-11-21T14:03:06;24.00;;;12.77;;
7316;SDS011;3699;51.462;6.696;2023-11-21T14:05:42;22.03;;;13.03;;
7316;SDS011;3699;51.462;6.696;2023-11-21T14:08:09;27.57;;;13.80;;
7316;SDS011;3699;51.462;6.696;2023-11-21T14:10:41;24.60;;;12.63;;
7316;SDS011;3699;51.462;6.696;2023-11-21T14:13:10;23.93;;;13.30;;
7316;SDS011;3699;51.462;6.696;2023-11-21T14:15:38;28.97;;;14.40;;
7316;SDS011;3699;51.462;6.696;2023-11-21T14:18:08;26.87;;;13.27;;
7316;SDS011;3699;51.462;6.696;2023-11-21T14:20:37;24.53;;;13.77;;
7316;SDS011;3699;51.462;6.696;2023-11-21T14:23:04;25.37;;;14.13;;
7316;SDS011;3699;51.462;6.696;2023-11-21T14:25:32;28.10;;;15.33;;
7316;SDS011;3699;51.462;6.696;2023-11-21T14:27:59;22.33;;;14.60;;
7316;SDS011;3699;51.462;6.696;2023-11-21T14:30:29;26.37;;;15.03;;
7316;SDS011;3699;51.462;6.696;2023-11-21T14:32:58;23.93;;;13.97;;
7316;SDS011;3699;51.462;6.696;2023-11-21T14:35:25;23.20;;;13.60;;
7316;SDS011;3699;51.462;6.696;2023-11-21T14:37:52;27.43;;;15.00;;
7316;SDS011;3699;51.462;6.696;2023-11-21T14:40:20;29.87;;;14.70;;
7316;SDS011;3699;51.462;6.696;2023-11-21T14:42:49;25.63;;;14.13;;
7316;SDS011;3699;51.462;6.696;2023-11-21T14:45:18;23.67;;;14.63;;
7316;SDS011;3699;51.462;6.696;2023-11-21T14:47:47;23.17;;;13.60;;
7316;SDS011;3699;51.462;6.696;2023-11-21T14:50:21;23.90;;;13.47;;
7316;SDS011;3699;51.462;6.696;2023-11-21T14:53:13;24.27;;;14.30;;
7316;SDS011;3699;51.462;6.696;2023-11-21T14:55:39;22.30;;;13.07;;